createdAt,value
2022-08-26T00:00:19.889Z,13.60
2022-08-26T00:02:47.914Z,15.27
2022-08-26T00:05:16.632Z,14.43
2022-08-26T00:07:44.494Z,13.00
2022-08-26T00:10:12.810Z,15.25
2022-08-26T00:12:41.349Z,13.13
2022-08-26T00:15:12.803Z,12.87
2022-08-26T00:17:41.362Z,11.10
2022-08-26T00:20:12.732Z,14.43
2022-08-26T00:22:42.167Z,11.13
2022-08-26T00:25:12.802Z,14.10
2022-08-26T00:27:41.581Z,13.57
2022-08-26T00:30:22.843Z,15.85
2022-08-26T00:32:52.721Z,12.98
2022-08-26T00:35:21.831Z,15.25
2022-08-26T00:37:51.708Z,13.70
2022-08-26T00:40:24.721Z,12.47
2022-08-26T00:42:53.256Z,14.57
2022-08-26T00:45:21.258Z,14.13
2022-08-26T00:48:01.587Z,14.40
2022-08-26T00:50:43.622Z,16.30
2022-08-26T00:53:24.145Z,12.87
2022-08-26T00:56:01.992Z,10.80
2022-08-26T00:58:34.517Z,12.13
2022-08-26T01:01:03.188Z,11.30
2022-08-26T01:03:34.734Z,14.18
2022-08-26T01:06:12.657Z,15.20
2022-08-26T01:08:41.840Z,11.85
2022-08-26T01:11:11.736Z,12.65
2022-08-26T01:13:40.601Z,12.43
2022-08-26T01:16:12.595Z,11.85
2022-08-26T01:18:44.644Z,12.43
2022-08-26T01:21:30.698Z,12.15
2022-08-26T01:24:00.016Z,11.80
2022-08-26T01:26:41.207Z,13.05
2022-08-26T01:29:15.253Z,12.48
2022-08-26T01:31:50.435Z,11.60
2022-08-26T01:34:32.451Z,10.77
2022-08-26T01:37:15.781Z,14.75
2022-08-26T01:39:47.593Z,12.45
2022-08-26T01:42:18.752Z,11.32
2022-08-26T01:44:59.871Z,13.83
2022-08-26T01:47:30.326Z,11.82
2022-08-26T01:50:03.015Z,10.27
2022-08-26T01:52:34.011Z,13.73
2022-08-26T01:55:02.469Z,9.80
2022-08-26T01:57:31.124Z,10.17
2022-08-26T02:00:01.767Z,12.60
2022-08-26T02:02:43.481Z,10.38
2022-08-26T02:05:17.321Z,9.73
2022-08-26T02:07:51.331Z,11.55
2022-08-26T02:10:19.726Z,9.90
2022-08-26T02:12:52.026Z,9.35
2022-08-26T02:15:20.086Z,9.32
2022-08-26T02:17:52.650Z,9.77
2022-08-26T02:20:21.535Z,10.40
2022-08-26T02:22:49.742Z,11.00
2022-08-26T02:25:42.700Z,10.13
2022-08-26T02:28:14.531Z,13.35
2022-08-26T02:30:43.545Z,11.18
2022-08-26T02:33:17.357Z,10.85
2022-08-26T02:35:48.586Z,11.47
2022-08-26T02:38:16.687Z,12.23
2022-08-26T02:40:44.626Z,13.35
2022-08-26T02:43:15.708Z,12.10
2022-08-26T02:45:43.932Z,13.02
2022-08-26T02:48:18.877Z,14.00
2022-08-26T02:50:47.212Z,12.90
2022-08-26T02:53:16.687Z,11.80
2022-08-26T02:55:53.582Z,12.07
2022-08-26T02:58:21.818Z,11.13
2022-08-26T03:00:52.539Z,12.40
2022-08-26T03:03:23.495Z,13.27
2022-08-26T03:05:53.218Z,11.38
2022-08-26T03:08:22.716Z,13.52
2022-08-26T03:10:51.504Z,12.30
2022-08-26T03:13:19.576Z,10.50
2022-08-26T03:15:49.677Z,9.55
2022-08-26T03:18:18.123Z,9.65
2022-08-26T03:20:48.443Z,9.75
2022-08-26T03:23:16.677Z,12.43
2022-08-26T03:25:51.449Z,10.03
2022-08-26T03:28:20.397Z,10.25
2022-08-26T03:30:49.875Z,9.40
2022-08-26T03:33:17.998Z,9.10
2022-08-26T03:35:50.739Z,10.32
2022-08-26T03:38:25.561Z,9.93
2022-08-26T03:40:54.048Z,10.32
2022-08-26T03:43:23.035Z,10.20
2022-08-26T03:45:51.982Z,11.48
2022-08-26T03:48:20.842Z,9.77
2022-08-26T03:50:51.958Z,10.30
2022-08-26T03:53:20.641Z,9.60
2022-08-26T03:55:51.833Z,9.90
2022-08-26T03:58:21.366Z,9.73
2022-08-26T04:00:49.795Z,11.23
2022-08-26T04:03:42.537Z,9.73
2022-08-26T04:06:10.601Z,8.85
2022-08-26T04:08:39.432Z,10.43
2022-08-26T04:11:08.897Z,9.45
2022-08-26T04:13:38.120Z,13.60
2022-08-26T04:16:06.509Z,10.43
2022-08-26T04:18:37.111Z,10.55
2022-08-26T04:21:07.888Z,11.00
2022-08-26T04:23:47.704Z,10.50
2022-08-26T04:26:18.337Z,9.15
2022-08-26T04:28:47.725Z,9.63
2022-08-26T04:31:17.790Z,11.70
2022-08-26T04:33:49.629Z,8.30
2022-08-26T04:36:19.971Z,9.88
2022-08-26T04:38:49.177Z,9.43
2022-08-26T04:41:18.545Z,10.80
2022-08-26T04:43:49.293Z,8.93
2022-08-26T04:46:23.174Z,13.00
2022-08-26T04:48:53.439Z,10.98
2022-08-26T04:51:28.286Z,12.40
2022-08-26T04:53:57.987Z,12.80
2022-08-26T04:56:37.643Z,17.10
2022-08-26T04:59:16.729Z,14.52
2022-08-26T05:01:51.745Z,19.10
2022-08-26T05:04:21.637Z,21.48
2022-08-26T05:06:52.176Z,36.47
2022-08-26T05:09:21.121Z,43.50
2022-08-26T05:11:52.340Z,46.78
2022-08-26T05:14:23.783Z,44.88
2022-08-26T05:16:52.945Z,34.10
2022-08-26T05:19:21.196Z,32.63
2022-08-26T05:21:49.620Z,24.00
2022-08-26T05:24:18.694Z,23.60
2022-08-26T05:26:48.097Z,21.38
2022-08-26T05:29:16.932Z,15.07
2022-08-26T05:31:44.918Z,15.35
2022-08-26T05:34:13.321Z,14.88
2022-08-26T05:36:42.329Z,14.73
2022-08-26T05:39:10.801Z,14.68
2022-08-26T05:41:41.529Z,12.15
2022-08-26T05:44:13.175Z,12.27
2022-08-26T05:46:45.230Z,9.88
2022-08-26T05:49:16.960Z,9.60
2022-08-26T05:51:47.925Z,10.23
2022-08-26T05:54:21.834Z,8.82
2022-08-26T05:56:52.006Z,8.63
2022-08-26T05:59:24.322Z,9.57
2022-08-26T06:01:55.287Z,10.13
2022-08-26T06:04:29.736Z,7.95
2022-08-26T06:06:59.075Z,9.77
2022-08-26T06:09:27.755Z,9.02
2022-08-26T06:11:56.565Z,8.60
2022-08-26T06:14:26.378Z,7.17
2022-08-26T06:16:55.428Z,8.63
2022-08-26T06:19:23.970Z,9.40
2022-08-26T06:21:54.688Z,10.13
2022-08-26T06:24:42.126Z,6.90
2022-08-26T06:27:15.313Z,14.03
2022-08-26T06:29:43.793Z,10.35
2022-08-26T06:32:12.590Z,11.85
2022-08-26T06:34:40.648Z,11.93
2022-08-26T06:37:10.178Z,9.85
2022-08-26T06:39:40.275Z,11.27
2022-08-26T06:42:10.824Z,9.98
2022-08-26T06:44:39.192Z,10.50
2022-08-26T06:47:09.449Z,12.00
2022-08-26T06:49:37.749Z,14.32
2022-08-26T06:52:05.930Z,14.10
2022-08-26T06:54:34.249Z,11.93
2022-08-26T06:57:02.382Z,9.30
2022-08-26T06:59:31.677Z,10.43
2022-08-26T07:01:59.869Z,10.88
2022-08-26T07:04:28.398Z,10.03
2022-08-26T07:06:56.924Z,10.27
2022-08-26T07:09:27.855Z,9.23
2022-08-26T07:11:56.652Z,12.10
2022-08-26T07:14:26.228Z,10.35
2022-08-26T07:16:55.674Z,10.87
2022-08-26T07:19:30.133Z,10.63
2022-08-26T07:22:06.705Z,8.77
2022-08-26T07:24:39.316Z,9.57
2022-08-26T07:27:10.539Z,11.48
2022-08-26T07:29:40.224Z,11.03
2022-08-26T07:32:08.781Z,9.82
2022-08-26T07:34:42.022Z,8.73
2022-08-26T07:37:10.817Z,9.70
2022-08-26T07:39:40.388Z,13.02
2022-08-26T07:42:10.076Z,7.90
2022-08-26T07:44:38.635Z,11.17
2022-08-26T07:47:24.727Z,10.93
2022-08-26T07:49:56.325Z,11.88
2022-08-26T07:52:27.380Z,8.38
2022-08-26T07:55:00.736Z,9.13
2022-08-26T07:57:30.814Z,8.63
2022-08-26T07:59:59.453Z,9.02
2022-08-26T08:02:28.817Z,9.75
2022-08-26T08:04:58.773Z,9.63
2022-08-26T08:07:44.656Z,10.68
2022-08-26T08:10:18.634Z,12.40
2022-08-26T08:12:49.970Z,8.30
2022-08-26T08:15:21.617Z,8.35
2022-08-26T08:17:51.666Z,8.10
2022-08-26T08:20:20.635Z,8.43
2022-08-26T08:22:48.646Z,7.33
2022-08-26T08:25:17.393Z,7.10
2022-08-26T08:27:45.974Z,7.13
2022-08-26T08:30:15.057Z,7.82
2022-08-26T08:32:49.080Z,8.02
2022-08-26T08:35:21.729Z,10.80
2022-08-26T08:37:54.539Z,12.05
2022-08-26T08:40:25.486Z,6.85
2022-08-26T08:43:11.028Z,11.70
2022-08-26T08:46:09.846Z,9.18
2022-08-26T08:48:46.619Z,8.03
2022-08-26T08:51:33.586Z,8.73
2022-08-26T08:54:03.000Z,7.43
2022-08-26T08:56:36.378Z,7.32
2022-08-26T08:59:21.472Z,8.07
2022-08-26T09:01:52.588Z,11.70
2022-08-26T09:04:43.054Z,8.88
2022-08-26T09:07:19.088Z,9.57
2022-08-26T09:09:57.524Z,9.23
2022-08-26T09:12:30.078Z,8.00
2022-08-26T09:15:33.520Z,8.07
2022-08-26T09:18:25.072Z,8.45
2022-08-26T09:21:05.638Z,8.80
2022-08-26T09:23:37.190Z,7.80
2022-08-26T09:26:25.928Z,7.25
2022-08-26T09:29:01.415Z,6.37
2022-08-26T09:31:33.018Z,8.88
2022-08-26T09:34:28.066Z,8.77
2022-08-26T09:36:59.046Z,8.80
2022-08-26T09:39:39.901Z,8.20
2022-08-26T09:42:21.262Z,8.83
2022-08-26T09:44:57.680Z,7.60
2022-08-26T09:47:52.968Z,7.78
2022-08-26T09:50:34.118Z,8.80
2022-08-26T09:53:16.013Z,9.02
2022-08-26T09:55:47.075Z,7.67
2022-08-26T09:58:37.889Z,11.73
2022-08-26T10:01:36.191Z,8.60
2022-08-26T10:04:21.188Z,11.27
2022-08-26T10:07:01.828Z,7.22
2022-08-26T10:09:34.235Z,7.67
2022-08-26T10:12:10.550Z,9.88
2022-08-26T10:14:49.010Z,10.07
2022-08-26T10:17:31.926Z,9.23
2022-08-26T10:20:23.111Z,7.50
2022-08-26T10:23:01.560Z,9.37
2022-08-26T10:25:42.344Z,9.50
2022-08-26T10:28:23.683Z,8.30
2022-08-26T10:30:58.714Z,6.55
2022-08-26T10:33:27.286Z,6.97
2022-08-26T10:36:04.143Z,7.93
2022-08-26T10:38:41.950Z,8.35
2022-08-26T10:41:18.028Z,9.23
2022-08-26T10:43:56.663Z,7.72
2022-08-26T10:46:29.219Z,7.35
2022-08-26T10:49:00.572Z,8.83
2022-08-26T10:51:38.958Z,7.75
2022-08-26T10:54:27.045Z,7.25
2022-08-26T10:57:23.510Z,6.68
2022-08-26T10:59:57.541Z,9.45
2022-08-26T11:02:40.798Z,5.63
2022-08-26T11:05:23.317Z,8.50
2022-08-26T11:08:14.994Z,6.07
2022-08-26T11:10:43.567Z,6.75
2022-08-26T11:13:12.705Z,8.45
2022-08-26T11:15:40.614Z,6.70
2022-08-26T11:18:11.782Z,6.25
2022-08-26T11:20:46.156Z,9.90
2022-08-26T11:23:24.546Z,6.50
2022-08-26T11:26:11.000Z,8.38
2022-08-26T11:28:50.191Z,8.27
2022-08-26T11:31:27.251Z,8.95
2022-08-26T11:34:00.491Z,6.55
2022-08-26T11:36:37.836Z,7.57
2022-08-26T11:39:18.426Z,6.43
2022-08-26T11:41:53.338Z,9.37
2022-08-26T11:44:49.325Z,8.20
2022-08-26T11:47:29.323Z,8.30
2022-08-26T11:50:13.421Z,7.60
2022-08-26T11:52:44.724Z,6.93
2022-08-26T11:55:15.567Z,6.67
2022-08-26T11:58:05.821Z,8.85
2022-08-26T12:00:59.402Z,8.48
2022-08-26T12:03:39.741Z,7.13
2022-08-26T12:06:15.758Z,5.78
2022-08-26T12:08:45.458Z,5.73
2022-08-26T12:11:28.326Z,6.20
2022-08-26T12:14:05.247Z,6.35
2022-08-26T12:16:40.996Z,5.00
2022-08-26T12:19:32.595Z,6.25
2022-08-26T12:22:20.939Z,7.03
2022-08-26T12:25:01.107Z,7.15
2022-08-26T12:27:37.654Z,6.78
2022-08-26T12:30:14.751Z,5.80
2022-08-26T12:32:57.398Z,7.03
2022-08-26T12:35:29.520Z,6.47
2022-08-26T12:37:58.314Z,5.82
2022-08-26T12:40:43.756Z,6.15
2022-08-26T12:43:14.941Z,6.47
2022-08-26T12:45:59.020Z,5.85
2022-08-26T12:48:38.911Z,6.50
2022-08-26T12:51:14.653Z,6.78
2022-08-26T12:53:44.728Z,6.75
2022-08-26T12:56:40.606Z,6.97
2022-08-26T12:59:25.390Z,5.60
2022-08-26T13:01:54.644Z,8.53
2022-08-26T13:04:43.213Z,8.48
2022-08-26T13:07:19.061Z,7.45
2022-08-26T13:09:47.428Z,7.72
2022-08-26T13:12:32.877Z,7.18
2022-08-26T13:15:02.705Z,8.83
2022-08-26T13:17:31.570Z,7.20
2022-08-26T13:20:03.778Z,6.60
2022-08-26T13:22:33.754Z,8.20
2022-08-26T13:25:02.190Z,7.28
2022-08-26T13:27:31.182Z,7.10
2022-08-26T13:30:00.488Z,6.45
2022-08-26T13:32:29.144Z,8.55
2022-08-26T13:34:58.245Z,7.90
2022-08-26T13:37:34.538Z,5.50
2022-08-26T13:40:07.569Z,7.40
2022-08-26T13:42:36.182Z,7.88
2022-08-26T13:45:05.770Z,13.40
2022-08-26T13:47:37.274Z,9.50
2022-08-26T13:50:06.224Z,6.93
2022-08-26T13:52:37.299Z,7.23
2022-08-26T13:55:07.202Z,7.45
2022-08-26T13:57:35.294Z,6.82
2022-08-26T14:00:05.522Z,9.52
2022-08-26T14:02:39.032Z,6.63
2022-08-26T14:05:07.656Z,7.30
2022-08-26T14:07:35.894Z,6.95
2022-08-26T14:10:04.637Z,8.18
2022-08-26T14:12:33.101Z,8.07
2022-08-26T14:15:01.074Z,8.25
2022-08-26T14:17:30.778Z,8.83
2022-08-26T14:19:58.951Z,7.35
2022-08-26T14:22:27.449Z,10.93
2022-08-26T14:24:55.435Z,8.65
2022-08-26T14:27:23.706Z,8.77
2022-08-26T14:29:52.207Z,10.33
2022-08-26T14:32:25.653Z,9.10
2022-08-26T14:34:55.895Z,6.88
2022-08-26T14:37:24.410Z,7.82
2022-08-26T14:39:52.973Z,8.32
2022-08-26T14:42:27.139Z,7.87
2022-08-26T14:45:03.222Z,9.65
2022-08-26T14:47:31.815Z,9.82
2022-08-26T14:49:59.812Z,7.97
2022-08-26T14:52:28.332Z,8.27
2022-08-26T14:54:56.431Z,9.33
2022-08-26T14:57:24.612Z,8.15
2022-08-26T14:59:52.664Z,11.50
2022-08-26T15:02:27.811Z,9.05
2022-08-26T15:05:03.425Z,7.38
2022-08-26T15:07:31.691Z,10.53
2022-08-26T15:10:00.249Z,9.07
2022-08-26T15:12:28.534Z,7.78
2022-08-26T15:14:59.620Z,9.05
2022-08-26T15:17:28.880Z,9.80
2022-08-26T15:19:56.749Z,10.53
2022-08-26T15:22:25.232Z,11.23
2022-08-26T15:24:58.856Z,9.65
2022-08-26T15:27:27.099Z,8.40
2022-08-26T15:29:55.288Z,8.07
2022-08-26T15:32:23.935Z,10.10
2022-08-26T15:34:53.738Z,11.15
2022-08-26T15:37:22.119Z,10.25
2022-08-26T15:39:50.804Z,8.90
2022-08-26T15:42:19.166Z,8.95
2022-08-26T15:44:47.786Z,12.30
2022-08-26T15:47:16.536Z,8.57
2022-08-26T15:49:44.730Z,9.25
2022-08-26T15:52:15.887Z,11.93
2022-08-26T15:54:44.273Z,8.00
2022-08-26T15:57:14.373Z,11.83
2022-08-26T15:59:43.820Z,9.77
2022-08-26T16:02:11.948Z,10.57
2022-08-26T16:04:40.006Z,9.07
2022-08-26T16:07:09.200Z,9.10
2022-08-26T16:09:37.464Z,8.30
2022-08-26T16:12:05.745Z,8.88
2022-08-26T16:14:33.923Z,11.48
2022-08-26T16:17:02.140Z,12.35
2022-08-26T16:19:30.348Z,12.95
2022-08-26T16:21:58.368Z,11.27
2022-08-26T16:24:30.398Z,9.25
2022-08-26T16:26:59.032Z,14.10
2022-08-26T16:29:27.991Z,11.43
2022-08-26T16:31:56.395Z,13.52
2022-08-26T16:34:24.865Z,8.00
2022-08-26T16:36:53.227Z,10.82
2022-08-26T16:39:21.461Z,8.88
2022-08-26T16:41:50.010Z,8.27
2022-08-26T16:44:19.193Z,9.00
2022-08-26T16:46:47.481Z,8.50
2022-08-26T16:49:15.570Z,10.02
2022-08-26T16:51:43.908Z,11.88
2022-08-26T16:54:11.751Z,9.32
2022-08-26T16:56:40.122Z,10.40
2022-08-26T16:59:12.096Z,10.00
2022-08-26T17:01:40.382Z,9.23
2022-08-26T17:04:08.610Z,10.82
2022-08-26T17:06:37.334Z,9.07
2022-08-26T17:09:05.505Z,8.20
2022-08-26T17:11:33.907Z,9.83
2022-08-26T17:14:02.319Z,11.20
2022-08-26T17:16:30.557Z,8.52
2022-08-26T17:19:00.290Z,8.88
2022-08-26T17:21:29.271Z,10.75
2022-08-26T17:23:57.240Z,9.63
2022-08-26T17:26:26.115Z,9.68
2022-08-26T17:28:54.485Z,11.68
2022-08-26T17:31:23.727Z,8.98
2022-08-26T17:33:53.849Z,8.98
2022-08-26T17:36:27.707Z,10.13
2022-08-26T17:38:58.591Z,11.77
2022-08-26T17:41:27.527Z,9.88
2022-08-26T17:43:55.826Z,8.00
2022-08-26T17:46:24.410Z,11.95
2022-08-26T17:48:52.709Z,9.07
2022-08-26T17:51:23.073Z,10.93
2022-08-26T17:53:52.317Z,10.43
2022-08-26T17:56:25.080Z,10.05
2022-08-26T17:58:55.084Z,15.30
2022-08-26T18:01:27.509Z,10.27
2022-08-26T18:04:00.344Z,13.15
2022-08-26T18:06:31.033Z,12.20
2022-08-26T18:09:00.330Z,13.30
2022-08-26T18:11:29.443Z,17.00
2022-08-26T18:13:57.930Z,12.43
2022-08-26T18:16:26.157Z,14.55
2022-08-26T18:18:55.988Z,12.35
2022-08-26T18:21:26.496Z,12.95
2022-08-26T18:23:56.371Z,11.15
2022-08-26T18:26:41.092Z,13.20
2022-08-26T18:29:09.328Z,15.02
2022-08-26T18:31:38.086Z,13.55
2022-08-26T18:34:06.852Z,13.43
2022-08-26T18:36:37.611Z,14.35
2022-08-26T18:39:07.541Z,13.27
2022-08-26T18:41:43.892Z,14.50
2022-08-26T18:44:14.333Z,17.50
2022-08-26T18:46:44.046Z,17.90
2022-08-26T18:49:14.405Z,18.02
2022-08-26T18:51:43.689Z,14.83
2022-08-26T18:54:12.691Z,15.25
2022-08-26T18:56:43.170Z,13.88
2022-08-26T18:59:13.755Z,13.23
2022-08-26T19:01:43.013Z,14.48
2022-08-26T19:04:19.497Z,12.80
2022-08-26T19:06:51.190Z,15.25
2022-08-26T19:09:20.917Z,15.05
2022-08-26T19:11:50.347Z,16.17
2022-08-26T19:14:21.963Z,20.35
2022-08-26T19:16:52.700Z,18.80
2022-08-26T19:19:28.349Z,29.03
2022-08-26T19:21:56.821Z,21.08
2022-08-26T19:24:28.365Z,15.70
2022-08-26T19:26:59.564Z,18.17
2022-08-26T19:29:35.782Z,16.58
2022-08-26T19:32:11.663Z,14.95
2022-08-26T19:34:43.454Z,13.00
2022-08-26T19:37:11.890Z,12.57
2022-08-26T19:39:39.908Z,11.43
2022-08-26T19:42:08.577Z,13.77
2022-08-26T19:44:56.412Z,13.40
2022-08-26T19:47:24.678Z,14.25
2022-08-26T19:50:00.707Z,15.85
2022-08-26T19:52:30.763Z,13.77
2022-08-26T19:55:00.771Z,14.10
2022-08-26T19:57:32.382Z,13.30
2022-08-26T20:00:02.007Z,13.18
2022-08-26T20:02:34.883Z,12.70
2022-08-26T20:05:07.268Z,12.73
2022-08-26T20:07:36.162Z,14.87
2022-08-26T20:10:06.588Z,15.60
2022-08-26T20:12:36.638Z,16.73
2022-08-26T20:15:05.766Z,14.20
2022-08-26T20:17:36.701Z,18.58
2022-08-26T20:20:32.858Z,16.40
2022-08-26T20:23:05.849Z,16.52
2022-08-26T20:25:34.689Z,14.88
2022-08-26T20:28:03.250Z,16.17
2022-08-26T20:30:31.921Z,15.00
2022-08-26T20:33:03.338Z,14.03
2022-08-26T20:35:31.960Z,14.32
2022-08-26T20:38:00.779Z,16.50
2022-08-26T20:40:29.902Z,14.55
2022-08-26T20:42:59.862Z,15.82
2022-08-26T20:45:28.573Z,18.20
2022-08-26T20:47:56.785Z,14.43
2022-08-26T20:50:25.014Z,16.17
2022-08-26T20:52:54.569Z,17.75
2022-08-26T20:55:22.755Z,15.75
2022-08-26T20:57:51.913Z,15.80
2022-08-26T21:00:27.095Z,14.98
2022-08-26T21:02:57.340Z,14.93
2022-08-26T21:05:25.819Z,16.52
2022-08-26T21:07:54.613Z,13.35
2022-08-26T21:10:22.602Z,16.50
2022-08-26T21:12:52.027Z,14.88
2022-08-26T21:15:19.999Z,16.08
2022-08-26T21:17:49.238Z,15.20
2022-08-26T21:20:17.433Z,14.88
2022-08-26T21:22:45.863Z,13.87
2022-08-26T21:25:13.913Z,15.93
2022-08-26T21:27:42.490Z,18.08
2022-08-26T21:30:11.439Z,13.23
2022-08-26T21:32:40.010Z,13.43
2022-08-26T21:35:09.292Z,15.67
2022-08-26T21:37:38.254Z,18.05
2022-08-26T21:40:08.469Z,14.25
2022-08-26T21:42:37.217Z,15.95
2022-08-26T21:45:06.338Z,13.63
2022-08-26T21:47:35.006Z,13.90
2022-08-26T21:50:03.090Z,16.90
2022-08-26T21:52:31.416Z,14.50
2022-08-26T21:55:01.481Z,15.00
2022-08-26T21:57:30.824Z,15.45
2022-08-26T21:59:58.942Z,15.82
2022-08-26T22:02:27.306Z,15.83
2022-08-26T22:04:56.927Z,11.50
2022-08-26T22:07:28.155Z,18.05
2022-08-26T22:09:56.756Z,13.52
2022-08-26T22:12:24.882Z,12.48
2022-08-26T22:14:53.180Z,10.70
2022-08-26T22:17:23.327Z,16.10
2022-08-26T22:19:51.705Z,14.73
2022-08-26T22:22:20.266Z,14.00
2022-08-26T22:24:48.666Z,11.43
2022-08-26T22:27:16.694Z,13.93
2022-08-26T22:29:47.182Z,10.00
2022-08-26T22:32:16.137Z,14.07
2022-08-26T22:34:46.131Z,12.82
2022-08-26T22:37:14.918Z,12.88
2022-08-26T22:39:43.033Z,14.77
2022-08-26T22:42:11.211Z,13.40
2022-08-26T22:44:39.435Z,12.32
2022-08-26T22:47:07.832Z,14.13
2022-08-26T22:49:36.282Z,15.10
2022-08-26T22:52:04.650Z,16.00
2022-08-26T22:54:33.327Z,13.63
2022-08-26T22:57:01.862Z,12.43
2022-08-26T22:59:30.038Z,15.25
2022-08-26T23:01:58.364Z,13.82
2022-08-26T23:04:26.389Z,13.68
2022-08-26T23:06:55.183Z,12.50
2022-08-26T23:09:23.217Z,14.10
2022-08-26T23:11:51.563Z,12.20
2022-08-26T23:14:20.152Z,11.80
2022-08-26T23:16:49.181Z,15.90
2022-08-26T23:19:20.530Z,11.65
2022-08-26T23:21:52.681Z,12.93
2022-08-26T23:24:21.177Z,12.25
2022-08-26T23:26:49.654Z,13.27
2022-08-26T23:29:17.764Z,13.20
2022-08-26T23:31:46.128Z,11.88
2022-08-26T23:34:33.356Z,11.93
2022-08-26T23:37:02.110Z,9.73
2022-08-26T23:39:35.304Z,10.95
2022-08-26T23:42:03.947Z,9.80
2022-08-26T23:44:32.283Z,11.73
2022-08-26T23:47:00.504Z,8.90
2022-08-26T23:49:29.946Z,12.63
2022-08-26T23:52:16.990Z,9.93
2022-08-26T23:54:49.020Z,11.70
2022-08-26T23:57:18.719Z,9.55
2022-08-26T23:59:48.867Z,8.23
